createdAt,value
2023-09-03T00:02:22.214Z,66.03
2023-09-03T00:04:48.845Z,65.99
2023-09-03T00:07:15.456Z,66.08
2023-09-03T00:09:41.948Z,66.01
2023-09-03T00:12:08.560Z,66.12
2023-09-03T00:14:35.126Z,66.10
2023-09-03T00:17:01.650Z,65.98
2023-09-03T00:19:28.117Z,65.83
2023-09-03T00:21:54.661Z,65.86
2023-09-03T00:24:21.171Z,65.83
2023-09-03T00:26:47.671Z,65.80
2023-09-03T00:29:14.210Z,65.76
2023-09-03T00:31:41.115Z,65.73
2023-09-03T00:34:07.805Z,65.81
2023-09-03T00:36:35.295Z,65.68
2023-09-03T00:39:01.799Z,65.56
2023-09-03T00:41:29.004Z,65.73
2023-09-03T00:43:58.024Z,65.37
2023-09-03T00:46:25.206Z,65.38
2023-09-03T00:48:54.154Z,65.40
2023-09-03T00:51:21.203Z,65.33
2023-09-03T00:53:51.525Z,65.39
2023-09-03T00:56:18.198Z,65.51
2023-09-03T00:58:46.326Z,65.38
2023-09-03T01:01:13.068Z,65.05
2023-09-03T01:03:39.746Z,65.29
2023-09-03T01:06:07.516Z,65.25
2023-09-03T01:08:34.708Z,65.30
2023-09-03T01:11:01.176Z,65.25
2023-09-03T01:13:46.436Z,65.24
2023-09-03T01:16:39.211Z,65.09
2023-09-03T01:19:37.208Z,65.30
2023-09-03T01:22:19.093Z,65.17
2023-09-03T01:25:27.538Z,65.05
2023-09-03T01:28:26.478Z,64.89
2023-09-03T01:30:58.592Z,65.06
2023-09-03T01:33:30.602Z,64.86
2023-09-03T01:36:01.114Z,64.84
2023-09-03T01:38:32.132Z,64.84
2023-09-03T01:41:00.535Z,64.78
2023-09-03T01:43:27.531Z,64.64
2023-09-03T01:46:00.146Z,64.69
2023-09-03T01:48:41.124Z,64.65
2023-09-03T01:51:54.618Z,64.65
2023-09-03T01:54:31.469Z,64.73
2023-09-03T01:57:02.807Z,64.42
2023-09-03T01:59:44.645Z,64.67
2023-09-03T02:04:44.017Z,64.41
2023-09-03T02:07:12.046Z,64.63
2023-09-03T02:09:38.703Z,64.49
2023-09-03T02:12:07.965Z,64.23
2023-09-03T02:14:34.543Z,64.46
2023-09-03T02:17:01.083Z,64.35
2023-09-03T02:19:27.848Z,64.33
2023-09-03T02:21:54.350Z,64.22
2023-09-03T02:24:20.886Z,64.41
2023-09-03T02:26:48.108Z,64.28
2023-09-03T02:29:17.951Z,64.32
2023-09-03T02:31:44.548Z,64.08
2023-09-03T02:34:11.127Z,64.09
2023-09-03T02:36:37.747Z,64.13
2023-09-03T02:39:06.190Z,64.04
2023-09-03T02:41:33.235Z,64.44
2023-09-03T02:44:02.243Z,63.99
2023-09-03T02:46:29.015Z,64.08
2023-09-03T02:48:55.871Z,63.87
2023-09-03T02:51:23.990Z,64.00
2023-09-03T02:53:55.167Z,64.00
2023-09-03T02:56:23.889Z,63.99
2023-09-03T02:58:51.550Z,63.93
2023-09-03T03:01:20.789Z,63.74
2023-09-03T03:03:48.157Z,63.92
2023-09-03T03:06:15.725Z,63.77
2023-09-03T03:08:43.321Z,63.78
2023-09-03T03:11:17.540Z,63.91
2023-09-03T03:13:45.796Z,64.04
2023-09-03T03:16:14.771Z,63.78
2023-09-03T03:18:46.554Z,63.71
2023-09-03T03:21:19.907Z,63.76
2023-09-03T03:23:51.242Z,63.75
2023-09-03T03:26:18.268Z,63.76
2023-09-03T03:28:44.942Z,63.76
2023-09-03T03:31:20.054Z,63.63
2023-09-03T03:33:48.456Z,63.53
2023-09-03T03:36:28.614Z,63.50
2023-09-03T03:38:55.249Z,63.47
2023-09-03T03:41:21.964Z,63.41
2023-09-03T03:43:53.107Z,63.52
2023-09-03T03:46:20.952Z,63.36
2023-09-03T03:48:50.346Z,63.27
2023-09-03T03:51:17.181Z,63.30
2023-09-03T03:53:44.626Z,63.52
2023-09-03T03:56:12.836Z,63.36
2023-09-03T03:58:42.282Z,63.13
2023-09-03T04:01:35.248Z,63.29
2023-09-03T04:04:02.066Z,63.40
2023-09-03T04:06:29.184Z,63.38
2023-09-03T04:08:58.589Z,63.37
2023-09-03T04:11:25.959Z,63.13
2023-09-03T04:13:53.137Z,63.09
2023-09-03T04:16:23.413Z,63.24
2023-09-03T04:18:53.405Z,63.27
2023-09-03T04:21:20.007Z,63.11
2023-09-03T04:23:46.655Z,63.12
2023-09-03T04:26:13.275Z,63.10
2023-09-03T04:28:40.032Z,62.96
2023-09-03T04:31:09.536Z,63.08
2023-09-03T04:33:39.610Z,63.10
2023-09-03T04:36:06.338Z,62.80
2023-09-03T04:38:39.204Z,63.05
2023-09-03T04:41:06.760Z,62.88
2023-09-03T04:43:36.219Z,62.92
2023-09-03T04:46:02.903Z,62.72
2023-09-03T04:48:30.874Z,62.95
2023-09-03T04:51:05.710Z,62.71
2023-09-03T04:53:34.035Z,62.81
2023-09-03T04:56:02.353Z,62.77
2023-09-03T04:58:29.188Z,62.61
2023-09-03T05:00:55.822Z,62.66
2023-09-03T05:03:22.413Z,62.88
2023-09-03T05:05:49.069Z,62.82
2023-09-03T05:08:17.035Z,62.71
2023-09-03T05:10:43.744Z,62.71
2023-09-03T05:13:10.468Z,62.68
2023-09-03T05:15:38.750Z,62.62
2023-09-03T05:18:05.799Z,62.61
2023-09-03T05:20:33.267Z,62.59
2023-09-03T05:23:00.032Z,62.62
2023-09-03T05:25:26.731Z,62.49
2023-09-03T05:27:53.658Z,62.57
2023-09-03T05:30:21.404Z,62.52
2023-09-03T05:32:50.840Z,62.59
2023-09-03T05:35:17.481Z,62.46
2023-09-03T05:37:44.136Z,62.45
2023-09-03T05:40:11.600Z,62.51
2023-09-03T05:42:38.497Z,62.21
2023-09-03T05:45:05.715Z,62.37
2023-09-03T05:47:32.607Z,62.39
2023-09-03T05:49:59.924Z,62.40
2023-09-03T05:52:26.698Z,62.35
2023-09-03T05:54:53.425Z,62.35
2023-09-03T05:57:20.143Z,62.31
2023-09-03T05:59:51.406Z,62.29
2023-09-03T06:02:18.435Z,62.32
2023-09-03T06:04:45.253Z,62.37
2023-09-03T06:07:12.148Z,62.27
2023-09-03T06:09:39.522Z,62.31
2023-09-03T06:12:06.581Z,62.32
2023-09-03T06:14:33.722Z,62.12
2023-09-03T06:17:00.539Z,62.12
2023-09-03T06:19:27.198Z,62.22
2023-09-03T06:21:53.771Z,62.14
2023-09-03T06:24:20.396Z,62.14
2023-09-03T06:26:47.092Z,62.21
2023-09-03T06:29:13.742Z,62.11
2023-09-03T06:31:40.546Z,62.27
2023-09-03T06:34:07.212Z,62.01
2023-09-03T06:36:33.930Z,62.14
2023-09-03T06:39:00.723Z,62.19
2023-09-03T06:41:27.784Z,62.06
2023-09-03T06:43:54.420Z,62.05
2023-09-03T06:46:21.757Z,62.08
2023-09-03T06:48:50.260Z,62.06
2023-09-03T06:51:18.788Z,62.16
2023-09-03T06:53:45.450Z,62.05
2023-09-03T06:56:12.111Z,62.06
2023-09-03T06:58:39.659Z,61.98
2023-09-03T07:01:08.874Z,62.13
2023-09-03T07:03:35.830Z,61.94
2023-09-03T07:06:02.545Z,62.04
2023-09-03T07:08:31.181Z,61.79
2023-09-03T07:11:03.742Z,62.26
2023-09-03T07:13:30.457Z,61.86
2023-09-03T07:15:57.393Z,61.78
2023-09-03T07:18:24.168Z,62.05
2023-09-03T07:21:06.613Z,62.13
2023-09-03T07:23:33.688Z,62.02
2023-09-03T07:26:06.559Z,62.10
2023-09-03T07:28:34.839Z,62.10
2023-09-03T07:31:01.875Z,62.09
2023-09-03T07:33:28.637Z,62.15
2023-09-03T07:35:56.915Z,62.05
2023-09-03T07:38:26.475Z,62.04
2023-09-03T07:40:53.154Z,61.96
2023-09-03T07:43:20.229Z,62.06
2023-09-03T07:45:47.263Z,62.06
2023-09-03T07:48:13.929Z,61.89
2023-09-03T07:50:40.727Z,62.14
2023-09-03T07:53:07.623Z,62.14
2023-09-03T07:55:34.379Z,62.22
2023-09-03T07:58:01.012Z,61.90
2023-09-03T08:00:27.728Z,62.01
2023-09-03T08:02:54.381Z,62.08
2023-09-03T08:05:21.135Z,62.34
2023-09-03T08:07:47.809Z,62.16
2023-09-03T08:10:14.433Z,61.89
2023-09-03T08:12:41.097Z,62.08
2023-09-03T08:15:08.704Z,62.12
2023-09-03T08:17:35.492Z,62.08
2023-09-03T08:20:04.557Z,62.08
2023-09-03T08:22:32.861Z,62.29
2023-09-03T08:24:59.458Z,62.01
2023-09-03T08:27:26.061Z,62.16
2023-09-03T08:29:52.736Z,62.73
2023-09-03T08:32:19.331Z,62.98
2023-09-03T08:34:45.912Z,62.98
2023-09-03T08:37:12.725Z,62.95
2023-09-03T08:39:39.345Z,62.96
2023-09-03T08:42:07.208Z,62.85
2023-09-03T08:45:07.067Z,63.24
2023-09-03T08:47:39.259Z,63.62
2023-09-03T08:50:08.973Z,63.64
2023-09-03T08:52:38.784Z,64.05
2023-09-03T08:55:06.318Z,64.32
2023-09-03T08:57:35.994Z,64.25
2023-09-03T09:00:07.455Z,64.04
2023-09-03T09:02:35.774Z,64.16
2023-09-03T09:05:03.805Z,64.42
2023-09-03T09:07:30.688Z,64.10
2023-09-03T09:10:00.120Z,63.90
2023-09-03T09:12:32.764Z,63.51
2023-09-03T09:15:04.703Z,63.43
2023-09-03T09:17:41.261Z,63.42
2023-09-03T09:20:10.242Z,63.25
2023-09-03T09:22:44.850Z,63.33
2023-09-03T09:25:36.949Z,63.35
2023-09-03T09:28:14.701Z,63.30
2023-09-03T09:30:55.828Z,63.38
2023-09-03T09:33:23.421Z,63.16
2023-09-03T09:35:50.764Z,63.15
2023-09-03T09:38:18.742Z,63.17
2023-09-03T09:40:46.872Z,62.86
2023-09-03T09:43:13.706Z,63.18
2023-09-03T09:45:53.840Z,63.26
2023-09-03T09:48:23.151Z,63.30
2023-09-03T09:50:59.357Z,63.23
2023-09-03T09:53:27.872Z,63.20
2023-09-03T09:56:09.182Z,63.27
2023-09-03T09:58:40.804Z,63.17
2023-09-03T10:01:09.059Z,62.93
2023-09-03T10:03:44.264Z,63.13
2023-09-03T10:06:11.159Z,63.06
2023-09-03T10:08:38.018Z,63.00
2023-09-03T10:11:04.654Z,62.98
2023-09-03T10:13:33.262Z,63.09
2023-09-03T10:16:05.710Z,62.93
2023-09-03T10:18:36.234Z,63.11
2023-09-03T10:21:07.109Z,62.90
2023-09-03T10:23:48.317Z,63.00
2023-09-03T10:26:20.815Z,63.07
2023-09-03T10:28:54.311Z,62.89
2023-09-03T10:31:23.618Z,63.01
2023-09-03T10:33:50.494Z,63.02
2023-09-03T10:36:18.801Z,63.08
2023-09-03T10:38:46.356Z,62.81
2023-09-03T10:41:32.201Z,62.69
2023-09-03T10:43:59.141Z,62.90
2023-09-03T10:46:26.978Z,62.67
2023-09-03T10:48:58.218Z,63.19
2023-09-03T10:51:39.798Z,62.94
2023-09-03T10:54:20.636Z,62.72
2023-09-03T10:57:05.586Z,62.74
2023-09-03T11:00:07.592Z,62.94
2023-09-03T11:02:35.893Z,62.79
2023-09-03T11:05:23.256Z,62.87
2023-09-03T11:08:11.127Z,62.87
2023-09-03T11:10:37.610Z,63.03
2023-09-03T11:13:05.651Z,62.92
2023-09-03T11:15:33.226Z,63.11
2023-09-03T11:17:59.936Z,63.03
2023-09-03T11:20:50.335Z,63.14
2023-09-03T11:23:18.772Z,62.86
2023-09-03T11:25:46.384Z,63.12
2023-09-03T11:28:14.016Z,62.84
2023-09-03T11:30:47.823Z,62.96
2023-09-03T11:33:28.831Z,62.88
2023-09-03T11:35:55.998Z,63.17
2023-09-03T11:38:25.978Z,63.24
2023-09-03T11:40:56.830Z,63.35
2023-09-03T11:43:24.812Z,63.60
2023-09-03T11:45:51.832Z,63.24
2023-09-03T11:48:29.506Z,62.97
2023-09-03T11:50:56.127Z,63.09
2023-09-03T11:53:26.182Z,63.18
2023-09-03T11:56:01.080Z,63.26
2023-09-03T11:58:29.625Z,63.26
2023-09-03T12:00:56.691Z,63.01
2023-09-03T12:03:25.508Z,63.00
2023-09-03T12:05:52.681Z,63.11
2023-09-03T12:08:20.674Z,63.15
2023-09-03T12:10:55.750Z,62.70
2023-09-03T12:13:33.241Z,62.92
2023-09-03T12:16:07.863Z,62.90
2023-09-03T12:18:35.811Z,62.86
2023-09-03T12:21:07.156Z,63.11
2023-09-03T12:23:35.990Z,63.08
2023-09-03T12:26:03.190Z,63.04
2023-09-03T12:28:38.655Z,63.04
2023-09-03T12:31:07.970Z,62.96
2023-09-03T12:33:34.766Z,62.97
2023-09-03T12:36:05.951Z,62.98
2023-09-03T12:38:47.920Z,63.22
2023-09-03T12:41:14.557Z,63.17
2023-09-03T12:43:45.125Z,63.44
2023-09-03T12:46:12.541Z,63.41
2023-09-03T12:48:39.849Z,63.57
2023-09-03T12:51:07.491Z,63.48
2023-09-03T12:53:34.546Z,63.45
2023-09-03T12:56:01.152Z,63.50
2023-09-03T12:58:27.776Z,62.98
2023-09-03T13:00:54.590Z,63.36
2023-09-03T13:03:21.685Z,63.33
2023-09-03T13:05:48.780Z,63.07
2023-09-03T13:08:15.691Z,62.88
2023-09-03T13:10:43.596Z,62.98
2023-09-03T13:13:13.187Z,63.33
2023-09-03T13:15:40.574Z,63.09
2023-09-03T13:18:09.014Z,62.99
2023-09-03T13:20:35.865Z,62.99
2023-09-03T13:23:02.964Z,62.98
2023-09-03T13:25:35.061Z,63.07
2023-09-03T13:28:02.440Z,63.15
2023-09-03T13:30:29.145Z,63.26
2023-09-03T13:32:55.870Z,63.42
2023-09-03T13:35:23.423Z,63.52
2023-09-03T13:37:50.159Z,63.80
2023-09-03T13:40:16.883Z,64.03
2023-09-03T13:42:43.597Z,64.22
2023-09-03T13:45:10.746Z,64.66
2023-09-03T13:47:39.392Z,64.73
2023-09-03T13:50:07.413Z,64.43
2023-09-03T13:52:37.352Z,64.72
2023-09-03T13:55:04.153Z,64.68
2023-09-03T13:57:30.712Z,64.79
2023-09-03T14:00:00.570Z,64.88
2023-09-03T14:02:30.254Z,64.88
2023-09-03T14:05:01.285Z,64.77
2023-09-03T14:07:28.092Z,65.37
2023-09-03T14:09:56.073Z,65.09
2023-09-03T14:12:24.269Z,65.03
2023-09-03T14:14:50.938Z,65.15
2023-09-03T14:17:17.617Z,64.99
2023-09-03T14:19:44.349Z,65.19
2023-09-03T14:22:12.220Z,65.09
2023-09-03T14:24:39.114Z,65.23
2023-09-03T14:27:05.733Z,65.20
2023-09-03T14:29:32.632Z,65.28
2023-09-03T14:31:59.322Z,65.20
2023-09-03T14:34:26.290Z,65.07
2023-09-03T14:36:53.081Z,65.31
2023-09-03T14:39:23.563Z,65.28
2023-09-03T14:41:50.837Z,65.27
2023-09-03T14:44:17.559Z,65.36
2023-09-03T14:46:46.332Z,65.20
2023-09-03T14:49:13.621Z,65.24
2023-09-03T14:51:40.370Z,65.34
2023-09-03T14:54:07.068Z,65.29
2023-09-03T14:56:33.586Z,65.14
2023-09-03T14:59:03.589Z,65.16
2023-09-03T15:01:30.334Z,65.24
2023-09-03T15:03:57.197Z,65.34
2023-09-03T15:06:24.382Z,65.29
2023-09-03T15:08:52.515Z,65.35
2023-09-03T15:11:19.359Z,65.39
2023-09-03T15:13:53.861Z,65.38
2023-09-03T15:16:20.986Z,65.40
2023-09-03T15:18:47.750Z,65.29
2023-09-03T15:21:14.550Z,65.37
2023-09-03T15:23:41.412Z,65.39
2023-09-03T15:26:09.950Z,65.33
2023-09-03T15:28:37.163Z,65.32
2023-09-03T15:31:04.004Z,65.53
2023-09-03T15:33:30.618Z,65.42
2023-09-03T15:35:58.185Z,65.39
2023-09-03T15:38:24.999Z,65.44
2023-09-03T15:40:51.607Z,65.51
2023-09-03T15:43:20.025Z,65.57
2023-09-03T15:45:47.086Z,65.54
2023-09-03T15:48:13.849Z,65.38
2023-09-03T15:50:42.264Z,65.71
2023-09-03T15:53:10.387Z,65.48
2023-09-03T15:55:37.032Z,65.68
2023-09-03T15:58:04.351Z,65.60
2023-09-03T16:00:33.521Z,65.85
2023-09-03T16:03:00.310Z,65.84
2023-09-03T16:05:28.041Z,65.72
2023-09-03T16:07:55.578Z,65.78
2023-09-03T16:10:22.849Z,65.65
2023-09-03T16:12:49.554Z,65.80
2023-09-03T16:15:17.941Z,65.68
2023-09-03T16:17:44.687Z,65.65
2023-09-03T16:20:11.641Z,65.87
2023-09-03T16:22:38.204Z,65.75
2023-09-03T16:25:06.396Z,65.74
2023-09-03T16:27:32.958Z,65.61
2023-09-03T16:29:59.541Z,65.82
2023-09-03T16:32:27.236Z,65.89
2023-09-03T16:34:53.833Z,65.75
2023-09-03T16:37:23.261Z,65.91
2023-09-03T16:39:50.613Z,66.05
2023-09-03T16:42:17.278Z,66.03
2023-09-03T16:44:44.650Z,65.89
2023-09-03T16:47:11.312Z,66.05
2023-09-03T16:49:40.832Z,66.07
2023-09-03T16:52:07.795Z,66.09
2023-09-03T16:54:37.774Z,66.06
2023-09-03T16:57:04.596Z,66.03
2023-09-03T16:59:31.173Z,66.07
2023-09-03T17:01:57.790Z,66.07
2023-09-03T17:04:24.345Z,66.32
2023-09-03T17:06:51.176Z,66.25
2023-09-03T17:09:19.218Z,66.06
2023-09-03T17:11:45.935Z,65.94
2023-09-03T17:14:15.315Z,66.15
2023-09-03T17:16:42.065Z,66.17
2023-09-03T17:19:11.429Z,66.10
2023-09-03T17:21:38.000Z,66.25
2023-09-03T17:24:05.069Z,66.49
2023-09-03T17:26:33.472Z,66.45
2023-09-03T17:29:00.275Z,66.40
2023-09-03T17:31:34.271Z,66.30
2023-09-03T17:34:04.892Z,66.41
2023-09-03T17:36:31.572Z,66.35
2023-09-03T17:39:00.556Z,66.39
2023-09-03T17:41:27.139Z,66.56
2023-09-03T17:43:55.223Z,66.42
2023-09-03T17:46:21.956Z,66.39
2023-09-03T17:48:48.608Z,66.56
2023-09-03T17:51:15.119Z,66.46
2023-09-03T17:53:41.965Z,66.52
2023-09-03T17:56:08.594Z,66.52
2023-09-03T17:58:35.180Z,66.84
2023-09-03T18:01:03.993Z,66.64
2023-09-03T18:03:31.234Z,66.69
2023-09-03T18:05:58.309Z,66.62
2023-09-03T18:08:25.373Z,66.54
2023-09-03T18:10:52.022Z,66.79
2023-09-03T18:13:18.920Z,66.87
2023-09-03T18:15:45.756Z,66.70
2023-09-03T18:18:13.643Z,66.66
2023-09-03T18:20:40.198Z,66.87
2023-09-03T18:23:06.801Z,66.84
2023-09-03T18:25:33.501Z,66.87
2023-09-03T18:28:00.131Z,66.73
2023-09-03T18:30:26.671Z,66.70
2023-09-03T18:32:53.322Z,66.71
2023-09-03T18:35:20.023Z,66.91
2023-09-03T18:37:47.971Z,66.69
2023-09-03T18:40:14.559Z,66.70
2023-09-03T18:42:41.101Z,66.86
2023-09-03T18:45:08.241Z,66.89
2023-09-03T18:47:34.953Z,66.85
2023-09-03T18:50:04.258Z,66.84
2023-09-03T18:52:30.812Z,67.04
2023-09-03T18:54:57.328Z,66.81
2023-09-03T18:57:23.928Z,66.75
2023-09-03T18:59:50.487Z,66.83
2023-09-03T19:02:19.297Z,67.00
2023-09-03T19:04:46.152Z,67.03
2023-09-03T19:07:12.866Z,66.97
2023-09-03T19:09:42.135Z,66.89
2023-09-03T19:12:15.016Z,66.89
2023-09-03T19:14:43.401Z,66.89
2023-09-03T19:17:13.539Z,66.93
2023-09-03T19:19:40.147Z,66.88
2023-09-03T19:22:06.691Z,66.91
2023-09-03T19:24:33.289Z,66.88
2023-09-03T19:26:59.949Z,66.86
2023-09-03T19:29:26.802Z,66.98
2023-09-03T19:31:54.354Z,66.89
2023-09-03T19:34:25.566Z,66.91
2023-09-03T19:36:53.587Z,66.62
2023-09-03T19:39:20.330Z,66.95
2023-09-03T19:41:51.628Z,66.85
2023-09-03T19:44:18.991Z,66.66
2023-09-03T19:46:45.598Z,66.77
2023-09-03T19:49:12.273Z,66.56
2023-09-03T19:51:39.112Z,66.54
2023-09-03T19:54:05.834Z,66.52
2023-09-03T19:56:32.698Z,66.60
2023-09-03T19:58:59.517Z,66.38
2023-09-03T20:01:28.199Z,66.38
2023-09-03T20:03:55.023Z,66.60
2023-09-03T20:06:22.083Z,66.48
2023-09-03T20:08:48.743Z,66.23
2023-09-03T20:11:17.484Z,66.28
2023-09-03T20:13:44.767Z,66.28
2023-09-03T20:16:11.646Z,66.27
2023-09-03T20:18:38.733Z,66.28
2023-09-03T20:21:05.786Z,66.33
2023-09-03T20:23:32.805Z,66.12
2023-09-03T20:26:08.315Z,66.17
2023-09-03T20:28:46.176Z,66.15
2023-09-03T20:31:17.401Z,66.12
2023-09-03T20:33:44.587Z,66.20
2023-09-03T20:36:11.499Z,65.85
2023-09-03T20:38:38.255Z,66.03
2023-09-03T20:41:05.302Z,66.18
2023-09-03T20:43:32.313Z,66.16
2023-09-03T20:46:00.109Z,66.03
2023-09-03T20:48:27.656Z,65.75
2023-09-03T20:50:58.779Z,66.13
2023-09-03T20:53:25.341Z,65.99
2023-09-03T20:55:55.120Z,66.04
2023-09-03T20:58:23.725Z,65.74
2023-09-03T21:00:50.589Z,65.91
2023-09-03T21:03:17.692Z,65.65
2023-09-03T21:05:55.116Z,65.98
2023-09-03T21:08:24.657Z,65.68
2023-09-03T21:11:00.244Z,65.71
2023-09-03T21:13:27.581Z,65.75
2023-09-03T21:15:56.444Z,65.85
2023-09-03T21:18:28.583Z,65.71
2023-09-03T21:21:02.544Z,65.78
2023-09-03T21:23:31.699Z,65.67
2023-09-03T21:25:58.918Z,65.68
2023-09-03T21:28:25.780Z,65.54
2023-09-03T21:30:52.485Z,65.49
2023-09-03T21:33:19.237Z,65.60
2023-09-03T21:35:46.482Z,65.53
2023-09-03T21:38:13.057Z,65.67
2023-09-03T21:40:39.597Z,65.71
2023-09-03T21:43:09.309Z,65.44
2023-09-03T21:45:36.878Z,65.89
2023-09-03T21:48:11.526Z,65.62
2023-09-03T21:50:38.232Z,65.74
2023-09-03T21:53:04.887Z,65.63
2023-09-03T21:55:33.135Z,65.75
2023-09-03T21:57:59.747Z,65.88
2023-09-03T22:00:26.269Z,65.85
2023-09-03T22:02:53.098Z,65.89
2023-09-03T22:05:19.785Z,65.84
2023-09-03T22:07:46.361Z,65.97
2023-09-03T22:10:14.071Z,65.86
2023-09-03T22:12:40.655Z,65.84
2023-09-03T22:15:07.814Z,65.90
2023-09-03T22:17:37.551Z,66.08
2023-09-03T22:20:08.119Z,65.85
2023-09-03T22:22:34.820Z,65.97
2023-09-03T22:25:01.396Z,65.88
2023-09-03T22:27:28.342Z,66.01
2023-09-03T22:29:54.892Z,66.08
2023-09-03T22:32:21.463Z,66.16
2023-09-03T22:34:48.077Z,65.99
2023-09-03T22:37:15.318Z,66.20
2023-09-03T22:39:41.885Z,65.99
2023-09-03T22:42:08.408Z,66.05
2023-09-03T22:44:35.246Z,65.81
2023-09-03T22:47:03.739Z,66.01
2023-09-03T22:49:30.233Z,65.80
2023-09-03T22:51:56.749Z,65.82
2023-09-03T22:54:23.254Z,65.68
2023-09-03T22:56:49.983Z,65.92
2023-09-03T22:59:16.497Z,65.58
2023-09-03T23:01:43.094Z,65.90
2023-09-03T23:04:09.902Z,65.83
2023-09-03T23:06:36.490Z,65.93
2023-09-03T23:09:03.214Z,65.52
2023-09-03T23:11:36.528Z,65.65
2023-09-03T23:14:03.047Z,65.43
2023-09-03T23:16:30.519Z,65.48
2023-09-03T23:18:58.259Z,65.56
2023-09-03T23:21:24.721Z,64.98
2023-09-03T23:23:51.224Z,65.32
2023-09-03T23:26:19.957Z,65.25
2023-09-03T23:28:46.532Z,65.12
2023-09-03T23:31:14.394Z,65.22
2023-09-03T23:33:41.007Z,65.18
2023-09-03T23:36:10.564Z,65.08
2023-09-03T23:38:37.990Z,65.15
2023-09-03T23:41:05.160Z,65.51
2023-09-03T23:43:31.693Z,64.96
2023-09-03T23:45:58.224Z,65.07
2023-09-03T23:48:25.212Z,64.85
2023-09-03T23:50:52.351Z,64.94
2023-09-03T23:53:18.900Z,65.15
2023-09-03T23:55:47.063Z,65.38
2023-09-03T23:58:13.653Z,65.11
